createdAt,value
2023-03-18T00:00:20.961Z,47.32
2023-03-18T00:03:06.911Z,47.32
2023-03-18T00:05:52.770Z,47.93
2023-03-18T00:08:39.513Z,47.49
2023-03-18T00:11:25.152Z,47.44
2023-03-18T00:14:11.136Z,47.52
2023-03-18T00:16:57.133Z,47.49
2023-03-18T00:19:42.484Z,47.40
2023-03-18T00:22:28.297Z,47.62
2023-03-18T00:25:14.862Z,47.60
2023-03-18T00:28:00.434Z,47.88
2023-03-18T00:30:46.278Z,47.72
2023-03-18T00:33:31.992Z,47.74
2023-03-18T00:36:18.444Z,48.01
2023-03-18T00:39:04.301Z,47.81
2023-03-18T00:41:49.433Z,47.65
2023-03-18T00:44:34.746Z,47.89
2023-03-18T00:47:20.967Z,47.71
2023-03-18T00:50:08.448Z,47.86
2023-03-18T00:52:54.712Z,47.88
2023-03-18T00:55:41.102Z,48.49
2023-03-18T00:58:26.898Z,48.29
2023-03-18T01:01:13.785Z,47.65
2023-03-18T01:04:00.132Z,48.08
2023-03-18T01:06:47.842Z,48.07
2023-03-18T01:09:32.837Z,47.80
2023-03-18T01:12:18.369Z,48.24
2023-03-18T01:15:05.525Z,48.19
2023-03-18T01:17:54.264Z,48.40
2023-03-18T01:20:39.823Z,48.44
2023-03-18T01:23:26.318Z,48.08
2023-03-18T01:26:12.532Z,48.26
2023-03-18T01:29:01.048Z,48.25
2023-03-18T01:31:49.123Z,48.04
2023-03-18T01:34:34.654Z,48.09
2023-03-18T01:40:16.109Z,48.26
2023-03-18T01:43:10.382Z,47.95
2023-03-18T01:45:59.410Z,48.22
2023-03-18T01:48:46.473Z,47.92
2023-03-18T01:51:32.296Z,48.23
2023-03-18T01:54:19.016Z,47.82
2023-03-18T01:57:04.270Z,47.93
2023-03-18T01:59:52.020Z,48.09
2023-03-18T02:02:42.324Z,47.93
2023-03-18T02:05:28.430Z,47.80
2023-03-18T02:08:13.999Z,47.75
2023-03-18T02:10:59.819Z,48.33
2023-03-18T02:13:46.704Z,47.91
2023-03-18T02:16:41.668Z,48.16
2023-03-18T02:19:45.264Z,48.15
2023-03-18T02:22:39.504Z,48.07
2023-03-18T02:25:47.774Z,48.16
2023-03-18T02:28:37.380Z,47.79
2023-03-18T02:31:23.120Z,47.90
2023-03-18T02:34:09.972Z,47.92
2023-03-18T02:36:57.279Z,47.96
2023-03-18T02:39:42.692Z,48.21
2023-03-18T02:42:31.395Z,48.00
2023-03-18T02:45:43.716Z,48.13
2023-03-18T02:48:37.535Z,48.34
2023-03-18T02:51:24.681Z,47.91
2023-03-18T02:54:16.317Z,48.17
2023-03-18T02:57:02.846Z,47.81
2023-03-18T02:59:48.367Z,47.73
2023-03-18T03:02:33.819Z,47.60
2023-03-18T03:05:18.953Z,47.60
2023-03-18T03:08:04.707Z,47.71
2023-03-18T03:10:53.977Z,48.26
2023-03-18T03:13:41.926Z,48.38
2023-03-18T03:16:31.381Z,48.71
2023-03-18T03:19:16.966Z,48.39
2023-03-18T03:22:02.478Z,48.46
2023-03-18T03:24:48.672Z,48.94
2023-03-18T03:27:34.224Z,48.76
2023-03-18T03:30:19.663Z,48.69
2023-03-18T03:33:04.936Z,49.03
2023-03-18T03:35:52.175Z,49.10
2023-03-18T03:38:38.540Z,48.81
2023-03-18T03:41:23.912Z,48.95
2023-03-18T03:44:09.091Z,48.93
2023-03-18T03:46:54.423Z,48.89
2023-03-18T03:49:41.592Z,49.14
2023-03-18T03:52:28.664Z,48.63
2023-03-18T03:55:19.328Z,49.27
2023-03-18T03:58:04.668Z,49.01
2023-03-18T04:00:50.840Z,48.82
2023-03-18T04:03:36.329Z,49.17
2023-03-18T04:06:24.608Z,49.44
2023-03-18T04:09:17.933Z,49.00
2023-03-18T04:12:05.519Z,48.88
2023-03-18T04:14:51.901Z,48.79
2023-03-18T04:17:37.988Z,49.05
2023-03-18T04:20:23.497Z,49.02
2023-03-18T04:23:09.541Z,49.02
2023-03-18T04:25:54.847Z,49.75
2023-03-18T04:28:40.605Z,49.66
2023-03-18T04:31:28.713Z,49.53
2023-03-18T04:34:14.200Z,49.33
2023-03-18T04:36:59.755Z,49.48
2023-03-18T04:39:48.275Z,49.14
2023-03-18T04:42:33.879Z,48.64
2023-03-18T04:45:19.933Z,49.01
2023-03-18T04:48:05.765Z,48.96
2023-03-18T04:50:55.928Z,49.62
2023-03-18T04:53:45.141Z,49.20
2023-03-18T04:56:32.163Z,49.71
2023-03-18T04:59:19.064Z,49.71
2023-03-18T05:02:06.161Z,49.39
2023-03-18T05:04:53.098Z,49.78
2023-03-18T05:07:38.944Z,49.84
2023-03-18T05:10:29.761Z,50.25
2023-03-18T05:13:16.123Z,49.74
2023-03-18T05:16:02.178Z,49.65
2023-03-18T05:18:47.349Z,49.72
2023-03-18T05:21:33.247Z,49.67
2023-03-18T05:24:19.727Z,49.71
2023-03-18T05:27:06.164Z,49.35
2023-03-18T05:29:56.887Z,49.85
2023-03-18T05:32:49.016Z,50.33
2023-03-18T05:35:36.271Z,50.34
2023-03-18T05:38:22.598Z,49.73
2023-03-18T05:41:08.675Z,49.76
2023-03-18T05:43:57.879Z,50.28
2023-03-18T05:46:44.633Z,50.95
2023-03-18T05:49:36.081Z,50.08
2023-03-18T05:52:32.715Z,50.20
2023-03-18T05:55:21.839Z,49.74
2023-03-18T05:58:07.217Z,49.91
2023-03-18T06:00:54.724Z,50.31
2023-03-18T06:03:39.910Z,49.95
2023-03-18T06:06:24.984Z,50.71
2023-03-18T06:09:12.566Z,50.35
2023-03-18T06:12:00.838Z,50.46
2023-03-18T06:14:46.512Z,50.58
2023-03-18T06:17:32.503Z,49.97
2023-03-18T06:20:19.402Z,50.31
2023-03-18T06:23:05.308Z,50.62
2023-03-18T06:25:51.238Z,50.26
2023-03-18T06:28:38.148Z,50.68
2023-03-18T06:31:28.517Z,51.07
2023-03-18T06:34:14.834Z,50.89
2023-03-18T06:37:00.261Z,50.95
2023-03-18T06:39:45.721Z,50.51
2023-03-18T06:42:32.340Z,50.45
2023-03-18T06:45:29.106Z,50.67
2023-03-18T06:48:19.617Z,51.18
2023-03-18T06:51:07.692Z,51.13
2023-03-18T06:53:57.814Z,50.60
2023-03-18T06:56:48.788Z,50.75
2023-03-18T06:59:37.437Z,50.27
2023-03-18T07:02:27.292Z,50.33
2023-03-18T07:05:17.072Z,50.16
2023-03-18T07:08:02.895Z,50.06
2023-03-18T07:10:48.038Z,50.02
2023-03-18T07:13:34.701Z,50.43
2023-03-18T07:16:22.286Z,50.17
2023-03-18T07:19:08.241Z,50.61
2023-03-18T07:21:53.511Z,50.01
2023-03-18T07:24:39.050Z,49.56
2023-03-18T07:27:25.684Z,49.61
2023-03-18T07:30:12.066Z,49.03
2023-03-18T07:32:57.681Z,49.05
2023-03-18T07:35:44.718Z,49.26
2023-03-18T07:38:30.613Z,49.38
2023-03-18T07:41:15.937Z,49.95
2023-03-18T07:44:01.446Z,49.61
2023-03-18T07:46:46.821Z,48.82
2023-03-18T07:49:32.095Z,48.48
2023-03-18T07:52:18.100Z,48.17
2023-03-18T07:55:05.852Z,47.95
2023-03-18T07:57:51.208Z,48.01
2023-03-18T08:00:36.443Z,74.59
2023-03-18T08:03:22.495Z,68.67
2023-03-18T08:06:08.081Z,64.64
2023-03-18T08:08:53.503Z,55.84
2023-03-18T08:11:38.711Z,56.59
2023-03-18T08:14:24.222Z,52.09
2023-03-18T08:17:09.671Z,52.21
2023-03-18T08:19:54.987Z,47.80
2023-03-18T08:22:40.131Z,47.81
2023-03-18T08:25:26.049Z,43.72
2023-03-18T08:28:11.676Z,43.03
2023-03-18T08:30:59.159Z,43.25
2023-03-18T08:33:45.062Z,43.07
2023-03-18T08:36:30.968Z,43.15
2023-03-18T08:39:16.556Z,43.22
2023-03-18T08:42:05.428Z,43.36
2023-03-18T08:44:53.413Z,43.74
2023-03-18T08:47:39.144Z,44.27
2023-03-18T08:50:28.410Z,44.59
2023-03-18T08:53:13.872Z,44.70
2023-03-18T08:56:00.821Z,44.49
2023-03-18T08:58:48.541Z,44.61
2023-03-18T09:01:34.146Z,44.60
2023-03-18T09:04:20.176Z,45.08
2023-03-18T09:07:05.618Z,44.84
2023-03-18T09:09:50.809Z,44.78
2023-03-18T09:12:36.840Z,44.36
2023-03-18T09:15:22.502Z,44.85
2023-03-18T09:18:12.270Z,44.66
2023-03-18T09:20:57.440Z,45.22
2023-03-18T09:23:43.199Z,44.48
2023-03-18T09:26:28.222Z,43.80
2023-03-18T09:29:13.638Z,43.23
2023-03-18T09:32:00.490Z,43.64
2023-03-18T09:34:46.484Z,43.29
2023-03-18T09:37:31.883Z,43.41
2023-03-18T09:40:29.393Z,43.57
2023-03-18T09:43:33.132Z,43.24
2023-03-18T09:46:43.344Z,43.52
2023-03-18T09:49:39.688Z,42.81
2023-03-18T09:52:47.088Z,43.05
2023-03-18T09:55:53.047Z,42.60
2023-03-18T09:58:41.557Z,42.54
2023-03-18T10:01:28.486Z,41.82
2023-03-18T10:04:22.166Z,41.86
2023-03-18T10:07:15.027Z,41.67
2023-03-18T10:09:58.052Z,41.38
2023-03-18T10:12:50.587Z,40.88
2023-03-18T10:16:01.316Z,40.52
2023-03-18T10:18:47.692Z,40.06
2023-03-18T10:21:45.425Z,40.34
2023-03-18T10:24:46.690Z,40.01
2023-03-18T10:27:59.822Z,39.77
2023-03-18T10:31:00.269Z,40.12
2023-03-18T10:33:54.752Z,40.80
2023-03-18T10:37:05.878Z,41.17
2023-03-18T10:39:53.089Z,40.69
2023-03-18T10:42:38.293Z,40.49
2023-03-18T10:45:33.650Z,40.34
2023-03-18T10:48:20.537Z,40.70
2023-03-18T10:51:13.154Z,40.42
2023-03-18T10:54:15.735Z,40.66
2023-03-18T10:57:01.224Z,40.42
2023-03-18T10:59:47.606Z,40.46
2023-03-18T11:02:36.144Z,40.19
2023-03-18T11:05:29.637Z,40.42
2023-03-18T11:08:36.792Z,40.38
2023-03-18T11:11:29.052Z,40.41
2023-03-18T11:14:19.631Z,40.54
2023-03-18T11:17:18.966Z,40.74
2023-03-18T11:20:07.936Z,40.81
2023-03-18T11:22:56.043Z,40.97
2023-03-18T11:25:45.826Z,41.08
2023-03-18T11:28:31.068Z,41.50
2023-03-18T11:31:18.378Z,42.35
2023-03-18T11:34:08.677Z,43.05
2023-03-18T11:37:01.319Z,43.58
2023-03-18T11:39:48.534Z,44.11
2023-03-18T11:42:33.830Z,44.54
2023-03-18T11:45:37.351Z,43.65
2023-03-18T11:48:29.300Z,43.67
2023-03-18T11:51:36.603Z,44.09
2023-03-18T11:54:44.307Z,43.60
2023-03-18T11:57:46.528Z,43.32
2023-03-18T12:00:39.000Z,43.76
2023-03-18T12:03:52.430Z,43.93
2023-03-18T12:06:45.174Z,44.40
2023-03-18T12:09:47.205Z,44.25
2023-03-18T12:13:09.814Z,44.51
2023-03-18T12:16:01.547Z,44.77
2023-03-18T12:19:12.451Z,44.90
2023-03-18T12:22:19.454Z,45.12
2023-03-18T12:25:49.536Z,45.31
2023-03-18T12:29:17.336Z,45.70
2023-03-18T12:32:23.958Z,46.00
2023-03-18T12:35:41.564Z,46.37
2023-03-18T12:39:04.653Z,45.62
2023-03-18T12:42:01.973Z,46.14
2023-03-18T12:45:17.155Z,46.45
2023-03-18T12:48:44.857Z,46.69
2023-03-18T12:51:43.242Z,46.58
2023-03-18T12:54:33.834Z,46.60
2023-03-18T12:57:32.917Z,46.27
2023-03-18T13:00:20.432Z,46.04
2023-03-18T13:03:28.116Z,46.06
2023-03-18T13:06:37.540Z,45.40
2023-03-18T13:09:44.595Z,45.39
2023-03-18T13:12:37.081Z,45.22
2023-03-18T13:15:32.772Z,45.40
2023-03-18T13:18:44.301Z,45.60
2023-03-18T13:21:31.511Z,45.91
2023-03-18T13:24:54.026Z,45.68
2023-03-18T13:28:00.782Z,46.21
2023-03-18T13:30:50.173Z,46.69
2023-03-18T13:33:50.352Z,46.60
2023-03-18T13:36:47.142Z,46.99
2023-03-18T13:39:48.952Z,47.35
2023-03-18T13:42:37.970Z,47.58
2023-03-18T13:45:42.295Z,48.23
2023-03-18T13:48:33.684Z,48.18
2023-03-18T13:51:20.983Z,48.79
2023-03-18T13:54:14.689Z,48.57
2023-03-18T13:57:18.644Z,48.59
2023-03-18T14:00:14.745Z,48.70
2023-03-18T14:03:06.620Z,48.70
2023-03-18T14:06:30.210Z,48.79
2023-03-18T14:09:46.019Z,48.97
2023-03-18T14:12:31.150Z,49.15
2023-03-18T14:15:37.660Z,49.72
2023-03-18T14:18:27.738Z,50.03
2023-03-18T14:21:29.018Z,50.48
2023-03-18T14:24:17.446Z,50.42
2023-03-18T14:27:08.598Z,50.19
2023-03-18T14:29:53.634Z,50.23
2023-03-18T14:32:39.665Z,50.26
2023-03-18T14:35:32.973Z,50.59
2023-03-18T14:38:20.303Z,51.20
2023-03-18T14:41:19.638Z,51.89
2023-03-18T14:44:34.227Z,52.31
2023-03-18T14:47:38.145Z,52.55
2023-03-18T14:50:41.371Z,52.68
2023-03-18T14:53:35.137Z,52.79
2023-03-18T14:56:28.873Z,52.57
2023-03-18T14:59:15.727Z,52.63
2023-03-18T15:02:03.351Z,52.54
2023-03-18T15:04:54.509Z,52.62
2023-03-18T15:07:41.267Z,52.53
2023-03-18T15:10:30.945Z,52.41
2023-03-18T15:13:20.944Z,52.71
2023-03-18T15:16:06.426Z,52.83
2023-03-18T15:18:54.632Z,52.95
2023-03-18T15:21:40.376Z,53.25
2023-03-18T15:24:27.001Z,53.67
2023-03-18T15:27:20.473Z,53.83
2023-03-18T15:30:07.270Z,54.10
2023-03-18T15:33:02.810Z,54.09
2023-03-18T15:35:54.953Z,54.30
2023-03-18T15:38:49.699Z,54.58
2023-03-18T15:41:36.909Z,54.56
2023-03-18T15:44:31.356Z,54.42
2023-03-18T15:47:30.236Z,54.77
2023-03-18T15:50:26.985Z,54.49
2023-03-18T15:53:22.988Z,54.90
2023-03-18T15:56:17.545Z,54.66
2023-03-18T15:59:03.906Z,54.90
2023-03-18T16:01:50.345Z,55.24
2023-03-18T16:04:36.186Z,55.30
2023-03-18T16:07:28.253Z,55.21
2023-03-18T16:10:18.603Z,55.34
2023-03-18T16:13:04.682Z,55.58
2023-03-18T16:15:51.038Z,55.32
2023-03-18T16:18:36.227Z,55.48
2023-03-18T16:21:22.810Z,55.41
2023-03-18T16:24:08.535Z,55.40
2023-03-18T16:26:55.617Z,55.12
2023-03-18T16:29:41.634Z,55.18
2023-03-18T16:32:27.254Z,55.25
2023-03-18T16:35:17.917Z,55.27
2023-03-18T16:38:03.377Z,54.96
2023-03-18T16:40:48.897Z,55.17
2023-03-18T16:43:34.345Z,55.47
2023-03-18T16:46:19.690Z,55.85
2023-03-18T16:49:05.308Z,56.24
2023-03-18T16:51:51.562Z,56.20
2023-03-18T16:54:36.685Z,56.67
2023-03-18T16:57:23.525Z,57.03
2023-03-18T17:00:29.986Z,57.04
2023-03-18T17:03:18.058Z,57.79
2023-03-18T17:06:03.574Z,57.82
2023-03-18T17:08:49.926Z,58.35
2023-03-18T17:11:36.729Z,58.75
2023-03-18T17:14:47.113Z,59.10
2023-03-18T17:17:38.051Z,59.03
2023-03-18T17:20:23.341Z,59.20
2023-03-18T17:23:18.906Z,59.57
2023-03-18T17:26:05.906Z,59.68
2023-03-18T17:28:53.836Z,60.08
2023-03-18T17:31:39.304Z,60.13
2023-03-18T17:34:29.127Z,59.93
2023-03-18T17:37:14.296Z,59.85
2023-03-18T17:39:59.429Z,60.21
2023-03-18T17:42:47.479Z,60.02
2023-03-18T17:45:35.212Z,59.98
2023-03-18T17:48:25.951Z,60.30
2023-03-18T17:51:17.278Z,60.17
2023-03-18T17:54:05.668Z,60.54
2023-03-18T17:56:52.346Z,60.96
2023-03-18T17:59:37.701Z,60.77
2023-03-18T18:02:23.837Z,61.61
2023-03-18T18:05:20.104Z,61.86
2023-03-18T18:08:14.983Z,61.69
2023-03-18T18:11:23.808Z,62.32
2023-03-18T18:14:19.119Z,62.54
2023-03-18T18:17:14.124Z,62.54
2023-03-18T18:20:02.101Z,62.93
2023-03-18T18:22:53.119Z,63.26
2023-03-18T18:25:38.472Z,63.57
2023-03-18T18:28:30.378Z,63.39
2023-03-18T18:31:18.039Z,63.91
2023-03-18T18:34:03.454Z,64.31
2023-03-18T18:36:49.689Z,64.49
2023-03-18T18:39:38.218Z,64.51
2023-03-18T18:42:23.149Z,64.61
2023-03-18T18:45:14.633Z,65.05
2023-03-18T18:48:00.181Z,64.99
2023-03-18T18:50:47.975Z,65.18
2023-03-18T18:53:38.381Z,64.86
2023-03-18T18:56:34.619Z,65.05
2023-03-18T18:59:30.576Z,65.08
2023-03-18T19:02:29.261Z,65.38
2023-03-18T19:08:34.918Z,65.77
2023-03-18T19:11:20.040Z,65.87
